Time;durP1;ratioP1;P1;durP2;ratioP2;P2;SDS_P1;SDS_P2;PMS_P1;PMS_P2;Temp;Humidity;BMP_temperature;BMP_pressure;BME280_temperature;BME280_humidity;BME280_pressure;Samples;Min_cycle;Max_cycle;Signal;HPM_P1;HPM_P2
2021/04/03 00:02:15;;;;;;;31.83;23.43;;;;;;;10.45;100.00;95309.91;4971699;28;20231;-63
2021/04/03 00:04:42;;;;;;;37.33;26.23;;;;;;;10.50;100.00;95305.34;4971532;28;20199;-62
2021/04/03 00:07:10;;;;;;;33.20;24.33;;;;;;;10.52;100.00;95303.19;4971550;28;20199;-63
2021/04/03 00:09:37;;;;;;;46.03;25.33;;;;;;;10.49;100.00;95301.22;4971776;28;20195;-63
2021/04/03 00:12:06;;;;;;;34.80;23.67;;;;;;;10.44;100.00;95292.78;4971441;28;20200;-62
2021/04/03 00:14:34;;;;;;;33.47;22.23;;;;;;;10.38;100.00;95286.16;4971622;28;20578;-65
2021/04/03 00:17:01;;;;;;;30.70;23.27;;;;;;;10.30;100.00;95272.84;4971242;28;20231;-63
2021/04/03 00:19:28;;;;;;;35.87;23.37;;;;;;;10.34;100.00;95267.81;4971371;28;20558;-62
2021/04/03 00:21:55;;;;;;;31.73;23.40;;;;;;;10.39;100.00;95272.88;4971145;28;20706;-64
2021/04/03 00:24:24;;;;;;;35.50;22.83;;;;;;;10.38;100.00;95275.75;4971563;28;20203;-63
2021/04/03 00:26:52;;;;;;;28.87;21.03;;;;;;;10.49;100.00;95277.06;4971279;28;20675;-63
2021/04/03 00:29:19;;;;;;;28.87;21.13;;;;;;;10.44;100.00;95279.78;4971424;28;20228;-63
2021/04/03 00:31:46;;;;;;;30.07;21.00;;;;;;;10.34;100.00;95278.19;4971253;28;20693;-63
2021/04/03 00:34:13;;;;;;;27.30;20.30;;;;;;;10.30;100.00;95278.03;4971745;28;20204;-62
2021/04/03 00:36:40;;;;;;;29.37;21.53;;;;;;;10.22;100.00;95281.31;4971140;28;20192;-65
2021/04/03 00:39:08;;;;;;;26.67;19.33;;;;;;;10.16;100.00;95282.50;4971108;28;20215;-63
2021/04/03 00:41:38;;;;;;;28.37;19.17;;;;;;;10.18;100.00;95284.81;4970956;28;20230;-63
2021/04/03 00:44:08;;;;;;;23.63;17.13;;;;;;;10.07;100.00;95281.63;4971286;28;20204;-62
2021/04/03 00:46:35;;;;;;;21.73;16.87;;;;;;;10.04;100.00;95284.06;4971026;28;20235;-62
2021/04/03 00:49:04;;;;;;;30.73;18.40;;;;;;;9.98;100.00;95277.44;4971138;28;20199;-63
2021/04/03 00:51:31;;;;;;;21.73;16.57;;;;;;;10.00;100.00;95283.88;4971608;28;20214;-63
2021/04/03 00:54:00;;;;;;;28.83;16.97;;;;;;;9.93;100.00;95275.72;4971149;28;20200;-63
2021/04/03 00:59:50;;;;;;;30.47;18.77;;;;;;;9.82;100.00;95258.84;4971280;28;20735;-63
2021/04/03 01:02:17;;;;;;;29.60;17.60;;;;;;;9.77;100.00;95248.56;4971112;28;20267;-64
2021/04/03 01:04:44;;;;;;;18.83;14.70;;;;;;;9.74;100.00;95256.97;4971095;28;20227;-63
2021/04/03 01:07:11;;;;;;;19.47;14.93;;;;;;;9.68;100.00;95250.34;4971026;28;20365;-63
2021/04/03 01:09:39;;;;;;;17.63;14.70;;;;;;;9.64;100.00;95249.41;4970990;28;20192;-64
2021/04/03 01:12:17;;;;;;;19.03;14.17;;;;;;;9.46;100.00;95246.63;4971420;28;20239;-64
2021/04/03 01:14:55;;;;;;;19.50;14.97;;;;;;;9.51;100.00;95259.50;4970959;28;20258;-62
2021/04/03 01:17:30;;;;;;;27.37;17.83;;;;;;;9.59;100.00;95254.69;4971018;28;20287;-63
2021/04/03 01:20:12;;;;;;;27.40;18.10;;;;;;;9.52;100.00;95253.25;4971042;28;20211;-63
2021/04/03 01:22:59;;;;;;;20.67;15.10;;;;;;;9.45;100.00;95258.09;4971028;28;20275;-64
2021/04/03 01:25:37;;;;;;;21.47;15.33;;;;;;;9.31;100.00;95254.00;4970846;28;20282;-63
2021/04/03 01:28:30;;;;;;;20.93;14.97;;;;;;;9.33;100.00;95250.03;4970967;28;20263;-63
2021/04/03 01:30:59;;;;;;;21.97;15.37;;;;;;;9.32;100.00;95251.09;4974262;28;20203;-63
2021/04/03 01:33:30;;;;;;;23.23;16.20;;;;;;;9.41;100.00;95253.78;4974202;28;20242;-63
2021/04/03 01:36:03;;;;;;;20.73;15.07;;;;;;;9.41;100.00;95253.78;4974185;28;20196;-64
2021/04/03 01:38:35;;;;;;;20.37;14.87;;;;;;;9.42;100.00;95240.50;4974349;28;20227;-63
2021/04/03 01:41:03;;;;;;;23.63;17.00;;;;;;;9.43;100.00;95244.63;4974612;28;20231;-62
2021/04/03 01:43:35;;;;;;;20.07;15.90;;;;;;;9.41;100.00;95241.56;4974066;28;20780;-62
2021/04/03 01:46:05;;;;;;;25.27;16.63;;;;;;;9.16;100.00;95239.50;4974212;28;20200;-64
2021/04/03 01:48:32;;;;;;;23.60;17.10;;;;;;;9.16;100.00;95236.91;4974002;28;20227;-64
2021/04/03 01:51:00;;;;;;;20.83;16.17;;;;;;;9.19;100.00;95230.38;4973952;28;20603;-64
2021/04/03 01:53:28;;;;;;;24.77;17.00;;;;;;;9.12;100.00;95220.38;4974155;28;20199;-63
2021/04/03 01:55:57;;;;;;;50.73;17.03;;;;;;;8.81;100.00;95219.47;4974236;28;20204;-63
2021/04/03 01:58:25;;;;;;;29.13;19.53;;;;;;;8.79;100.00;95222.34;4974077;28;20722;-63
2021/04/03 02:00:52;;;;;;;30.27;20.27;;;;;;;8.89;100.00;95223.97;4973738;28;20290;-63
2021/04/03 02:03:21;;;;;;;31.43;20.33;;;;;;;8.90;100.00;95226.28;4973253;28;20223;-63
2021/04/03 02:05:48;;;;;;;40.40;19.63;;;;;;;8.88;100.00;95214.66;4973637;28;20192;-63
2021/04/03 02:08:18;;;;;;;44.37;18.37;;;;;;;8.96;100.00;95219.19;4973885;28;20294;-63
2021/04/03 02:10:46;;;;;;;123.53;21.37;;;;;;;9.01;100.00;95211.31;4973760;28;20639;-62
2021/04/03 02:13:15;;;;;;;23.83;16.73;;;;;;;8.92;100.00;95213.00;4973486;28;20242;-63
2021/04/03 02:15:43;;;;;;;42.03;26.70;;;;;;;8.94;100.00;95211.69;4973656;28;20670;-63
2021/04/03 02:18:12;;;;;;;50.17;29.97;;;;;;;8.91;100.00;95211.50;4973324;28;20213;-63
2021/04/03 02:20:40;;;;;;;47.87;28.77;;;;;;;8.95;100.00;95215.03;4973108;28;20234;-65
2021/04/03 02:23:08;;;;;;;45.63;28.93;;;;;;;8.88;100.00;95212.06;4973247;28;20314;-64
2021/04/03 02:25:35;;;;;;;39.90;25.53;;;;;;;8.82;100.00;95213.22;4973504;28;20219;-64
2021/04/03 02:28:03;;;;;;;35.87;23.50;;;;;;;8.82;100.00;95208.03;4973178;28;20199;-63
2021/04/03 02:30:30;;;;;;;47.67;29.07;;;;;;;8.92;100.00;95207.81;4973158;28;20200;-63
2021/04/03 02:32:58;;;;;;;37.80;25.73;;;;;;;8.86;100.00;95203.81;4973136;28;20242;-64
2021/04/03 02:35:26;;;;;;;37.30;24.13;;;;;;;8.89;100.00;95201.41;4973287;28;20203;-63
2021/04/03 02:37:57;;;;;;;35.87;22.27;;;;;;;8.91;100.00;95193.34;4973019;28;20266;-64
2021/04/03 02:40:26;;;;;;;40.60;27.07;;;;;;;8.85;100.00;95195.28;4973259;28;20196;-64
2021/04/03 02:43:00;;;;;;;126.53;40.00;;;;;;;8.76;100.00;95206.59;4973006;28;20231;-64
2021/04/03 02:45:31;;;;;;;220.43;61.83;;;;;;;8.72;100.00;95210.84;4973101;28;20636;-64
2021/04/03 02:48:02;;;;;;;348.27;33.30;;;;;;;8.73;100.00;95207.94;4972840;28;20247;-64
2021/04/03 02:50:34;;;;;;;310.07;29.97;;;;;;;8.67;100.00;95205.75;4972926;28;20199;-64
2021/04/03 02:53:04;;;;;;;254.67;25.53;;;;;;;8.81;100.00;95203.91;4972939;28;20215;-63
2021/04/03 02:55:33;;;;;;;116.80;25.40;;;;;;;8.66;100.00;95211.97;4972825;28;20228;-66
2021/04/03 02:58:01;;;;;;;35.03;23.67;;;;;;;8.69;100.00;95206.22;4972643;28;20199;-65
2021/04/03 03:00:29;;;;;;;34.47;21.87;;;;;;;8.67;100.00;95209.06;4972603;28;20290;-64
2021/04/03 03:02:56;;;;;;;30.50;20.73;;;;;;;8.63;100.00;95201.13;4972697;28;20278;-65
2021/04/03 03:05:24;;;;;;;33.57;21.47;;;;;;;8.67;100.00;95203.16;4972579;28;20212;-62
2021/04/03 03:07:53;;;;;;;53.53;34.57;;;;;;;8.55;100.00;95199.22;4972528;28;20196;-64
2021/04/03 03:10:21;;;;;;;37.47;23.90;;;;;;;8.42;100.00;95197.38;4972447;28;20247;-64
2021/04/03 03:12:51;;;;;;;50.67;31.47;;;;;;;8.37;100.00;95197.44;4972413;28;20279;-63
2021/04/03 03:15:25;;;;;;;37.60;23.93;;;;;;;8.39;100.00;95189.41;4972364;28;20199;-64
2021/04/03 03:17:54;;;;;;;31.37;21.53;;;;;;;8.43;100.00;95185.97;4972585;28;20588;-64
2021/04/03 03:20:21;;;;;;;31.73;21.57;;;;;;;8.44;100.00;95182.31;4972464;28;20577;-64
2021/04/03 03:22:48;;;;;;;31.93;22.20;;;;;;;8.39;100.00;95182.41;4972097;28;20232;-64
2021/04/03 03:25:15;;;;;;;37.73;23.30;;;;;;;8.41;100.00;95177.72;4972355;28;20689;-64
2021/04/03 03:27:46;;;;;;;30.83;22.50;;;;;;;8.42;100.00;95181.09;4972115;28;20231;-64
2021/04/03 03:30:16;;;;;;;31.73;22.73;;;;;;;8.37;100.00;95184.50;4972015;28;20583;-63
2021/04/03 03:32:43;;;;;;;41.50;25.70;;;;;;;8.30;100.00;95191.13;4972149;28;20810;-66
2021/04/03 03:35:12;;;;;;;89.17;44.97;;;;;;;8.16;100.00;95191.09;4972091;28;20202;-62
2021/04/03 03:37:40;;;;;;;66.03;38.33;;;;;;;8.17;100.00;95193.38;4972180;28;20741;-64
2021/04/03 03:40:08;;;;;;;136.17;31.30;;;;;;;7.98;100.00;95204.81;4971849;28;20250;-64
2021/04/03 03:42:36;;;;;;;82.47;29.50;;;;;;;7.99;100.00;95201.19;4971709;28;20236;-63
2021/04/03 03:45:06;;;;;;;57.17;35.33;;;;;;;7.78;100.00;95198.16;4971789;28;20756;-63
2021/04/03 03:47:33;;;;;;;54.07;36.17;;;;;;;7.54;100.00;95200.06;4971764;28;20286;-64
2021/04/03 03:50:00;;;;;;;60.57;39.17;;;;;;;7.54;100.00;95200.84;4972105;28;20211;-63
2021/04/03 03:52:27;;;;;;;64.90;41.70;;;;;;;7.69;100.00;95198.03;4971695;28;20203;-64
2021/04/03 03:54:54;;;;;;;56.90;34.63;;;;;;;7.64;100.00;95200.69;4971683;28;20196;-63
2021/04/03 03:57:21;;;;;;;52.63;33.33;;;;;;;7.70;100.00;95199.56;4971744;28;20196;-63
2021/04/03 03:59:48;;;;;;;42.30;27.03;;;;;;;7.62;100.00;95189.84;4971544;28;20235;-63
2021/04/03 04:02:16;;;;;;;39.83;25.27;;;;;;;7.61;100.00;95188.34;4971482;28;20231;-64
2021/04/03 04:04:43;;;;;;;37.67;23.13;;;;;;;7.69;100.00;95186.91;4971502;28;20290;-65
2021/04/03 04:07:10;;;;;;;31.50;22.50;;;;;;;7.76;100.00;95195.84;4971559;28;20276;-63
2021/04/03 04:09:37;;;;;;;34.57;24.57;;;;;;;7.81;100.00;95189.06;4971340;28;20206;-63
2021/04/03 04:12:06;;;;;;;40.43;28.47;;;;;;;7.76;100.00;95190.69;4971412;28;20207;-63
2021/04/03 04:14:33;;;;;;;110.17;87.90;;;;;;;7.84;100.00;95191.06;4971309;28;20675;-64
2021/04/03 04:17:00;;;;;;;63.07;43.30;;;;;;;7.81;100.00;95187.25;4971747;28;20250;-63
2021/04/03 04:19:31;;;;;;;39.87;25.07;;;;;;;7.70;100.00;95189.22;4971271;28;20199;-63
2021/04/03 04:21:58;;;;;;;45.20;34.13;;;;;;;7.79;100.00;95192.69;4971107;28;20309;-63
2021/04/03 04:24:25;;;;;;;40.83;26.70;;;;;;;7.76;100.00;95190.69;4971352;28;20282;-63
2021/04/03 04:26:52;;;;;;;39.77;22.30;;;;;;;7.78;100.00;95198.16;4971206;28;20207;-62
2021/04/03 04:29:19;;;;;;;75.57;32.33;;;;;;;7.74;100.00;95202.34;4971146;28;20195;-64
2021/04/03 04:31:46;;;;;;;82.07;28.27;;;;;;;7.63;100.00;95199.16;4971525;28;20306;-63
2021/04/03 04:34:15;;;;;;;52.00;26.83;;;;;;;7.62;100.00;95202.03;4971199;28;20254;-63
2021/04/03 04:36:43;;;;;;;52.70;29.90;;;;;;;7.59;100.00;95198.16;4971340;28;20261;-63
2021/04/03 04:39:10;;;;;;;46.67;26.97;;;;;;;7.56;100.00;95198.75;4971448;28;20207;-65
2021/04/03 04:41:37;;;;;;;37.33;23.40;;;;;;;7.55;100.00;95202.38;4971116;28;20196;-64
2021/04/03 04:44:04;;;;;;;34.70;22.50;;;;;;;7.49;100.00;95203.50;4971001;28;20211;-64
2021/04/03 04:46:31;;;;;;;35.53;21.53;;;;;;;7.58;100.00;95206.19;4970749;28;20241;-63
2021/04/03 04:48:58;;;;;;;41.20;25.73;;;;;;;7.65;100.00;95217.75;4971246;28;20204;-65
2021/04/03 04:51:25;;;;;;;36.07;25.00;;;;;;;7.59;100.00;95211.09;4971034;28;20199;-64
2021/04/03 04:53:53;;;;;;;36.50;26.23;;;;;;;7.73;100.00;95203.41;4970782;28;20596;-64
2021/04/03 04:56:20;;;;;;;43.60;28.90;;;;;;;7.77;100.00;95201.81;4970798;28;20675;-64
2021/04/03 04:58:50;;;;;;;33.67;24.20;;;;;;;7.86;100.00;95202.69;4970707;28;20204;-63
2021/04/03 05:01:17;;;;;;;32.17;22.67;;;;;;;7.95;100.00;95205.41;4971091;28;20204;-64
2021/04/03 05:03:44;;;;;;;39.37;24.90;;;;;;;8.08;100.00;95197.66;4971904;28;20266;-63
2021/04/03 05:06:11;;;;;;;32.43;23.07;;;;;;;8.19;100.00;95206.03;4974798;28;20200;-64
2021/04/03 05:08:38;;;;;;;34.07;25.30;;;;;;;8.28;100.00;95198.38;4974352;28;20203;-64
2021/04/03 05:11:06;;;;;;;42.87;29.90;;;;;;;8.37;100.00;95202.63;4974211;28;20204;-64
2021/04/03 05:13:32;;;;;;;38.10;24.97;;;;;;;8.44;100.00;95194.50;4974334;28;20200;-64
2021/04/03 05:16:00;;;;;;;37.00;27.37;;;;;;;8.54;100.00;95196.91;4974300;28;20698;-65
2021/04/03 05:18:26;;;;;;;36.60;25.47;;;;;;;8.44;100.00;95199.66;4974439;28;20556;-64
2021/04/03 05:20:53;;;;;;;30.63;22.03;;;;;;;8.56;100.00;95190.41;4973951;28;20283;-63
2021/04/03 05:23:21;;;;;;;33.80;19.57;;;;;;;8.64;100.00;95189.72;4974252;28;20231;-62
2021/04/03 05:25:48;;;;;;;65.23;19.07;;;;;;;8.71;100.00;95197.13;4974011;28;20196;-63
2021/04/03 05:28:16;;;;;;;157.50;21.23;;;;;;;8.88;100.00;95197.28;4973916;28;20192;-63
2021/04/03 05:30:43;;;;;;;199.27;21.20;;;;;;;9.00;100.00;95196.81;4974101;28;20238;-64
2021/04/03 05:33:10;;;;;;;150.07;19.80;;;;;;;9.29;100.00;95207.59;4974206;28;20207;-63
2021/04/03 05:35:37;;;;;;;111.93;21.20;;;;;;;9.11;100.00;95208.50;4974007;28;20247;-64
2021/04/03 05:38:05;;;;;;;50.80;20.47;;;;;;;9.29;100.00;95210.19;4973830;28;20231;-63
2021/04/03 05:40:32;;;;;;;43.60;21.13;;;;;;;9.26;100.00;95217.78;4973930;28;20196;-63
2021/04/03 05:43:02;;;;;;;41.17;20.47;;;;;;;9.38;100.00;95218.03;4973705;28;20227;-64
2021/04/03 05:45:30;;;;;;;67.93;23.40;;;;;;;9.39;100.00;95217.00;4973623;28;20199;-63
2021/04/03 05:48:00;;;;;;;37.33;24.40;;;;;;;9.34;100.00;95212.69;4973508;28;20302;-63
2021/04/03 05:50:31;;;;;;;34.97;23.73;;;;;;;9.38;100.00;95213.63;4973483;28;20262;-64
2021/04/03 05:52:59;;;;;;;34.20;23.83;;;;;;;9.70;100.00;95214.50;4973807;28;20216;-63
2021/04/03 05:55:26;;;;;;;33.97;24.37;;;;;;;9.92;100.00;95212.66;4973623;28;20326;-64
2021/04/03 05:57:53;;;;;;;31.43;24.20;;;;;;;10.02;100.00;95211.66;4973474;28;20689;-64
2021/04/03 06:00:21;;;;;;;33.17;23.83;;;;;;;10.06;100.00;95214.44;4973772;28;20211;-62
2021/04/03 06:02:49;;;;;;;33.97;24.40;;;;;;;10.30;100.00;95205.31;4973277;28;20234;-63
2021/04/03 06:05:16;;;;;;;34.07;24.93;;;;;;;10.48;100.00;95207.97;4973285;28;20739;-62
2021/04/03 06:07:43;;;;;;;33.97;25.10;;;;;;;10.61;100.00;95209.72;4973266;28;20624;-62
2021/04/03 06:10:12;;;;;;;31.10;22.97;;;;;;;10.91;100.00;95208.16;4973768;28;20659;-63
2021/04/03 06:12:43;;;;;;;30.70;23.83;;;;;;;11.34;100.00;95210.84;4973255;28;20232;-64
2021/04/03 06:15:26;;;;;;;32.93;22.70;;;;;;;11.69;100.00;95206.41;4973047;28;20586;-63
2021/04/03 06:17:57;;;;;;;32.07;22.10;;;;;;;11.74;100.00;95212.28;4973178;28;20195;-66
2021/04/03 06:20:30;;;;;;;30.83;21.33;;;;;;;11.66;100.00;95212.97;4973135;28;20587;-65
2021/04/03 06:22:57;;;;;;;32.07;21.93;;;;;;;11.71;100.00;95220.63;4973165;28;20270;-64
2021/04/03 06:25:24;;;;;;;30.97;20.73;;;;;;;11.72;100.00;95216.97;4972912;28;20681;-64
2021/04/03 06:28:06;;;;;;;28.53;21.77;;;;;;;11.86;100.00;95219.44;4973187;28;20211;-62
2021/04/03 06:30:35;;;;;;;28.17;21.33;;;;;;;11.59;100.00;95212.69;4973067;28;20199;-63
2021/04/03 06:33:16;;;;;;;32.00;22.33;;;;;;;11.54;100.00;95218.06;4973045;28;20211;-64
2021/04/03 06:36:04;;;;;;;29.27;21.60;;;;;;;11.58;100.00;95213.75;4973031;28;20643;-63
2021/04/03 06:38:31;;;;;;;30.07;22.13;;;;;;;11.77;100.00;95209.03;4972739;28;20204;-63
2021/04/03 06:41:17;;;;;;;31.97;23.10;;;;;;;11.60;100.00;95207.19;4972922;28;20630;-64
2021/04/03 06:44:00;;;;;;;28.13;20.90;;;;;;;11.43;100.00;95203.78;4972872;28;20286;-64
2021/04/03 06:46:27;;;;;;;28.50;21.43;;;;;;;11.26;100.00;95209.00;4972694;28;20286;-63
2021/04/03 06:48:57;;;;;;;31.83;21.93;;;;;;;11.16;100.00;95210.03;4972702;28;20673;-63
2021/04/03 06:51:25;;;;;;;35.07;23.80;;;;;;;11.20;100.00;95206.53;4972507;28;20272;-63
2021/04/03 06:53:53;;;;;;;35.20;24.60;;;;;;;11.31;100.00;95201.03;4972645;28;20232;-65
2021/04/03 06:56:23;;;;;;;33.80;24.13;;;;;;;11.37;100.00;95205.00;4972552;28;20567;-64
2021/04/03 06:58:58;;;;;;;31.23;22.63;;;;;;;11.34;100.00;95203.03;4972503;28;20196;-64
2021/04/03 07:01:26;;;;;;;33.33;23.57;;;;;;;11.25;100.00;95202.25;4972278;28;20576;-63
2021/04/03 07:03:58;;;;;;;35.07;23.43;;;;;;;11.30;100.00;95199.50;4972511;28;20236;-63
2021/04/03 07:06:26;;;;;;;36.70;25.13;;;;;;;11.31;100.00;95193.25;4972341;28;20671;-63
2021/04/03 07:08:54;;;;;;;35.57;25.37;;;;;;;11.36;100.00;95182.66;4972191;28;20669;-63
2021/04/03 07:11:21;;;;;;;39.90;24.80;;;;;;;11.44;100.00;95192.31;4972789;28;20258;-63
2021/04/03 07:13:48;;;;;;;32.90;24.37;;;;;;;11.67;100.00;95193.69;4972021;28;20196;-63
2021/04/03 07:16:20;;;;;;;35.53;25.00;;;;;;;11.77;100.00;95185.59;4971960;28;20238;-64
2021/04/03 07:18:49;;;;;;;34.57;24.17;;;;;;;11.75;100.00;95185.16;4972100;28;20196;-64
2021/04/03 07:21:17;;;;;;;34.97;24.83;;;;;;;11.88;100.00;95199.84;4972056;28;20236;-63
2021/04/03 07:23:44;;;;;;;34.87;24.53;;;;;;;12.24;100.00;95190.91;4971748;28;20318;-64
2021/04/03 07:26:12;;;;;;;35.23;24.90;;;;;;;12.38;100.00;95183.66;4971220;28;20287;-64
2021/04/03 07:28:41;;;;;;;36.20;25.77;;;;;;;12.46;100.00;95188.06;4971883;28;20196;-63
2021/04/03 07:31:08;;;;;;;41.07;27.60;;;;;;;12.40;100.00;95178.91;4971788;28;20196;-64
2021/04/03 07:33:49;;;;;;;35.63;25.70;;;;;;;12.63;99.23;95177.59;4971985;28;20191;-64
2021/04/03 07:36:33;;;;;;;38.87;25.60;;;;;;;12.71;95.89;95179.38;4971753;28;20586;-64
2021/04/03 07:39:00;;;;;;;37.50;27.13;;;;;;;12.70;97.97;95172.63;4971652;28;20486;-63
2021/04/03 07:41:37;;;;;;;40.57;27.60;;;;;;;12.84;98.55;95168.00;4971555;28;20579;-64
2021/04/03 07:44:12;;;;;;;35.57;26.53;;;;;;;13.12;95.65;95167.53;4971799;28;20314;-64
2021/04/03 07:46:45;;;;;;;32.87;25.80;;;;;;;13.40;94.40;95168.56;4971478;28;20203;-64
2021/04/03 07:49:31;;;;;;;31.70;23.97;;;;;;;13.51;95.88;95161.88;4971642;28;20254;-64
2021/04/03 07:51:59;;;;;;;25.63;20.30;;;;;;;13.63;97.41;95166.41;4971733;28;20207;-64
2021/04/03 07:54:33;;;;;;;28.97;21.97;;;;;;;13.98;93.90;95172.09;4971400;28;20204;-63
2021/04/03 07:57:02;;;;;;;27.97;20.10;;;;;;;13.76;92.23;95171.34;4971353;28;20551;-64
2021/04/03 07:59:48;;;;;;;23.70;19.90;;;;;;;13.75;95.17;95164.59;4971500;28;20222;-65
2021/04/03 08:02:17;;;;;;;26.13;20.73;;;;;;;14.07;95.25;95154.47;4970897;28;20694;-63
2021/04/03 08:04:45;;;;;;;29.73;20.53;;;;;;;14.53;89.86;95158.63;4971623;28;20290;-64
2021/04/03 08:07:14;;;;;;;27.47;19.83;;;;;;;14.80;88.68;95154.56;4971399;28;20200;-63
2021/04/03 08:09:44;;;;;;;29.37;21.17;;;;;;;14.88;86.58;95157.09;4971144;28;20200;-64
2021/04/03 08:12:13;;;;;;;30.00;23.73;;;;;;;14.90;90.43;95159.38;4971144;28;20207;-64
2021/04/03 08:14:50;;;;;;;25.37;20.13;;;;;;;14.95;92.84;95156.53;4970949;28;20203;-64
2021/04/03 08:17:22;;;;;;;21.70;18.43;;;;;;;14.88;92.05;95151.09;4971127;28;20235;-64
2021/04/03 08:19:50;;;;;;;24.27;19.50;;;;;;;14.93;88.84;95158.72;4971126;28;20654;-63
2021/04/03 08:22:30;;;;;;;24.17;18.57;;;;;;;14.99;88.83;95154.81;4971040;28;20244;-64
2021/04/03 08:25:01;;;;;;;21.93;18.20;;;;;;;15.45;86.52;95150.88;4969756;28;20204;-63
2021/04/03 08:27:37;;;;;;;21.43;17.53;;;;;;;15.69;84.09;95148.19;4971118;28;20199;-62
2021/04/03 08:30:25;;;;;;;21.53;17.90;;;;;;;15.90;83.14;95148.00;4971280;28;20281;-63
2021/04/03 08:33:11;;;;;;;21.10;16.93;;;;;;;16.08;83.60;95149.25;4971064;28;20192;-64
2021/04/03 08:35:39;;;;;;;22.93;17.13;;;;;;;16.29;84.61;95144.50;4970983;28;20196;-64
2021/04/03 08:38:14;;;;;;;21.63;18.13;;;;;;;16.36;86.29;95147.31;4972708;28;20622;-63
2021/04/03 08:40:42;;;;;;;23.00;17.67;;;;;;;16.47;84.14;95138.94;4974967;28;20294;-64
2021/04/03 08:43:19;;;;;;;19.83;17.23;;;;;;;16.45;84.49;95128.03;4975026;28;20286;-64
2021/04/03 08:45:49;;;;;;;22.47;17.53;;;;;;;16.92;85.13;95128.78;4974883;28;20234;-64
2021/04/03 08:48:17;;;;;;;22.33;17.03;;;;;;;17.13;81.12;95128.47;4974950;28;20274;-67
2021/04/03 08:50:47;;;;;;;20.70;16.07;;;;;;;16.90;78.30;95125.72;4974797;28;20200;-63
2021/04/03 08:53:18;;;;;;;20.10;16.10;;;;;;;17.25;81.86;95119.69;4974687;28;20199;-64
2021/04/03 08:55:45;;;;;;;22.30;17.63;;;;;;;17.51;82.17;95117.22;4974556;28;20338;-63
2021/04/03 08:58:12;;;;;;;20.73;16.73;;;;;;;17.57;80.25;95110.59;4974614;28;20199;-63
2021/04/03 09:00:41;;;;;;;25.50;17.17;;;;;;;17.09;82.37;95104.75;4974839;28;20258;-63
2021/04/03 09:03:08;;;;;;;31.45;17.83;;;;;;;17.28;83.69;95109.28;4974466;28;20251;-64
2021/04/03 09:05:35;;;;;;;22.50;16.03;;;;;;;17.34;80.41;95112.38;4974437;28;20197;-64
2021/04/03 09:08:02;;;;;;;22.60;15.67;;;;;;;17.59;76.04;95103.91;4974359;28;20693;-64
2021/04/03 09:10:39;;;;;;;18.97;15.53;;;;;;;17.62;75.86;95102.47;4974444;28;20203;-64
2021/04/03 09:13:14;;;;;;;19.58;15.38;;;;;;;17.54;74.86;95106.03;4974364;28;20200;-64
2021/04/03 09:15:45;;;;;;;19.50;16.23;;;;;;;16.95;82.54;95104.47;4974527;28;20710;-63
2021/04/03 09:18:12;;;;;;;23.70;16.90;;;;;;;16.59;79.19;95096.91;4974576;28;20659;-65
2021/04/03 09:20:47;;;;;;;22.17;15.97;;;;;;;16.86;78.69;95090.78;4974002;28;20188;-64
2021/04/03 09:23:15;;;;;;;23.23;16.33;;;;;;;17.05;79.50;95082.16;4974027;28;20322;-64
2021/04/03 09:25:44;;;;;;;22.70;16.57;;;;;;;17.29;79.61;95081.91;4974211;28;20327;-64
2021/04/03 09:28:15;;;;;;;19.17;15.43;;;;;;;17.49;78.46;95082.66;4974265;28;20196;-63
2021/04/03 09:30:45;;;;;;;19.98;16.42;;;;;;;17.87;76.92;95079.25;4974199;28;20298;-64
2021/04/03 09:33:21;;;;;;;18.80;15.20;;;;;;;17.93;78.13;95075.97;4974073;28;20195;-64
2021/04/03 09:35:48;;;;;;;21.95;16.13;;;;;;;18.16;78.65;95073.38;4973871;28;20200;-63
2021/04/03 09:38:27;;;;;;;24.13;15.13;;;;;;;18.11;73.66;95075.53;4973958;28;20231;-65
2021/04/03 09:40:57;;;;;;;17.75;14.07;;;;;;;18.39;69.04;95071.47;4973968;28;20592;-65
2021/04/03 09:43:39;;;;;;;20.02;14.48;;;;;;;18.68;68.58;95071.94;4974301;28;20753;-63
2021/04/03 09:46:06;;;;;;;19.80;15.75;;;;;;;18.78;69.25;95060.81;4973961;28;20215;-62
2021/04/03 09:48:33;;;;;;;22.35;16.05;;;;;;;18.75;70.00;95059.63;4973780;28;20231;-64
2021/04/03 09:51:00;;;;;;;23.05;15.52;;;;;;;18.43;71.54;95051.22;4973402;28;20206;-63
2021/04/03 09:53:29;;;;;;;18.77;15.52;;;;;;;18.18;71.98;95054.63;4974014;28;20203;-63
2021/04/03 09:55:58;;;;;;;21.42;14.40;;;;;;;18.16;70.00;95047.06;4973606;28;20200;-63
2021/04/03 09:58:25;;;;;;;17.88;14.90;;;;;;;18.28;69.64;95040.88;4974032;28;20658;-63
2021/04/03 10:00:52;;;;;;;19.65;15.32;;;;;;;18.21;72.83;95032.84;4973838;28;20195;-63
2021/04/03 10:03:19;;;;;;;21.88;15.15;;;;;;;18.20;71.15;95032.09;4973892;28;20255;-64
2021/04/03 10:05:47;;;;;;;26.63;15.75;;;;;;;18.14;70.76;95022.97;4973540;28;20207;-63
2021/04/03 10:08:14;;;;;;;24.33;15.88;;;;;;;18.29;69.21;95023.94;4973712;28;20266;-62
2021/04/03 10:10:42;;;;;;;19.83;14.02;;;;;;;18.30;69.35;95028.88;4973816;28;20204;-64
2021/04/03 10:13:10;;;;;;;20.15;14.40;;;;;;;17.96;69.42;95022.72;4973530;28;20188;-62
2021/04/03 10:15:37;;;;;;;25.38;20.50;;;;;;;17.86;71.95;95022.53;4973805;28;20235;-62
2021/04/03 10:18:05;;;;;;;17.23;14.20;;;;;;;17.74;70.52;95027.94;4973362;28;20196;-62
2021/04/03 10:20:32;;;;;;;22.10;17.70;;;;;;;17.50;76.57;95008.75;4973060;28;20228;-62
2021/04/03 10:22:59;;;;;;;20.43;15.27;;;;;;;17.23;73.91;95027.38;4973633;28;20228;-63
2021/04/03 10:25:27;;;;;;;20.07;15.13;;;;;;;16.83;76.24;95025.84;4973388;28;20203;-63
2021/04/03 10:27:55;;;;;;;21.70;15.50;;;;;;;16.52;79.77;95042.41;4973353;28;20200;-65
2021/04/03 10:30:24;;;;;;;21.43;17.73;;;;;;;16.02;85.83;95050.97;4973595;28;20203;-62
2021/04/03 10:32:53;;;;;;;19.37;16.40;;;;;;;15.69;86.23;95063.63;4973496;28;20282;-62
2021/04/03 10:35:21;;;;;;;22.20;15.27;;;;;;;15.34;91.65;95058.19;4973279;28;20242;-62
2021/04/03 10:37:48;;;;;;;21.53;15.10;;;;;;;15.01;91.04;95040.09;4973305;28;20200;-63
2021/04/03 10:40:16;;;;;;;19.17;16.70;;;;;;;14.86;91.28;95035.53;4973071;28;20212;-63
2021/04/03 10:42:43;;;;;;;25.97;21.60;;;;;;;14.72;93.49;95009.00;4972904;28;20227;-62
2021/04/03 10:45:11;;;;;;;22.23;17.43;;;;;;;14.52;93.41;95011.44;4972904;28;20621;-64
2021/04/03 10:47:44;;;;;;;16.77;11.20;;;;;;;14.59;91.55;95040.38;4972819;28;20216;-63
2021/04/03 10:50:12;;;;;;;15.80;10.30;;;;;;;14.72;91.38;95037.75;4973330;28;20597;-63
2021/04/03 10:52:40;;;;;;;13.97;9.23;;;;;;;14.80;89.05;95048.09;4972821;28;20612;-64
2021/04/03 10:55:08;;;;;;;27.33;20.03;;;;;;;14.91;89.90;95040.53;4973213;28;20204;-63
2021/04/03 10:57:35;;;;;;;17.13;11.50;;;;;;;14.98;87.01;95052.00;4972778;28;20321;-63
2021/04/03 11:00:02;;;;;;;10.67;8.73;;;;;;;14.82;91.87;95081.78;4972946;28;20189;-64
2021/04/03 11:02:29;;;;;;;16.17;10.60;;;;;;;14.75;93.79;95069.25;4971773;28;20200;-64
2021/04/03 11:04:57;;;;;;;18.83;12.57;;;;;;;14.50;94.74;95073.72;4972713;28;20203;-64
2021/04/03 11:07:24;;;;;;;17.77;12.43;;;;;;;14.24;97.40;95068.06;4972496;28;20291;-64
2021/04/03 11:09:52;;;;;;;17.80;13.33;;;;;;;14.29;96.95;95044.31;4972432;28;20272;-63
2021/04/03 11:12:19;;;;;;;16.87;11.70;;;;;;;14.15;94.59;95031.56;4972331;28;20202;-65
2021/04/03 11:14:46;;;;;;;16.97;13.87;;;;;;;14.17;97.24;95012.94;4972427;28;20215;-63
2021/04/03 11:17:13;;;;;;;17.90;14.10;;;;;;;14.13;96.94;95025.16;4972603;28;20211;-64
2021/04/03 11:19:40;;;;;;;25.47;18.77;;;;;;;14.11;97.62;95025.47;4972419;28;20200;-63
2021/04/03 11:22:08;;;;;;;21.43;17.67;;;;;;;14.02;98.10;95011.75;4972110;28;20231;-63
2021/04/03 11:24:37;;;;;;;19.93;14.67;;;;;;;14.04;96.26;94998.38;4972122;28;20231;-64
2021/04/03 11:27:06;;;;;;;28.23;20.60;;;;;;;13.96;99.80;95001.84;4971936;28;20207;-61
2021/04/03 11:29:33;;;;;;;45.57;30.30;;;;;;;14.00;100.00;95015.75;4972255;28;20204;-62